Terminal Aerodrome Forecast
Issued by NWS

Home | Current Version | Previous Version | Text Only | Print | Product List | Glossary On
Versions: 1 2 3 4 5 6 7 8 9 10 11 12 13 14 15 16 17
308
FTUS42 KJAX 280531
TAFCRG
TAF
KCRG 280531Z 2806/2906 21004KT P6SM SCT080
     FM281400 26007KT P6SM SCT030 SCT250
     FM282000 12008KT P6SM SCT050 SCT250
     FM290200 19005KT P6SM FEW050 SCT250=

USA.gov is the U.S. government's official web portal to all federal, state and local government web resources and services.